createdAt,value
2018-03-06T00:02:04.248Z,4.80
2018-03-06T00:04:31.681Z,4.80
2018-03-06T00:06:59.122Z,4.70
2018-03-06T00:09:27.326Z,4.70
2018-03-06T00:11:54.762Z,4.60
2018-03-06T00:14:22.966Z,4.70
2018-03-06T00:16:50.451Z,4.60
2018-03-06T00:19:17.838Z,4.60
2018-03-06T00:21:46.078Z,4.60
2018-03-06T00:24:13.526Z,4.50
2018-03-06T00:26:40.956Z,4.60
2018-03-06T00:29:08.399Z,4.60
2018-03-06T00:31:35.844Z,4.60
2018-03-06T00:34:04.071Z,4.50
2018-03-06T00:36:31.498Z,4.40
2018-03-06T00:38:58.934Z,4.40
2018-03-06T00:41:27.134Z,4.40
2018-03-06T00:43:54.617Z,4.40
2018-03-06T00:46:22.074Z,4.40
2018-03-06T00:48:49.517Z,4.40
2018-03-06T00:51:16.951Z,4.40
2018-03-06T00:53:44.425Z,4.30
2018-03-06T00:56:11.917Z,4.30
2018-03-06T00:58:39.338Z,4.30
2018-03-06T01:01:06.802Z,4.30
2018-03-06T01:03:34.356Z,4.30
2018-03-06T01:06:01.810Z,4.30
2018-03-06T01:08:29.253Z,4.20
2018-03-06T01:10:56.682Z,4.20
2018-03-06T01:13:24.901Z,4.00
2018-03-06T01:15:52.362Z,4.00
2018-03-06T01:18:19.795Z,4.10
2018-03-06T01:20:47.241Z,4.10
2018-03-06T01:23:14.729Z,4.00
2018-03-06T01:25:42.178Z,4.00
2018-03-06T01:28:09.645Z,4.00
2018-03-06T01:30:37.107Z,3.90
2018-03-06T01:33:04.618Z,3.90
2018-03-06T01:35:32.061Z,3.80
2018-03-06T01:37:59.858Z,3.80
2018-03-06T01:40:27.287Z,3.70
2018-03-06T01:42:54.822Z,3.70
2018-03-06T01:45:22.362Z,3.70
2018-03-06T01:47:49.817Z,3.70
2018-03-06T01:50:17.264Z,3.70
2018-03-06T01:52:44.814Z,3.70
2018-03-06T01:55:12.263Z,3.70
2018-03-06T01:57:39.726Z,3.70
2018-03-06T02:00:07.174Z,3.80
2018-03-06T02:02:34.604Z,3.70
2018-03-06T02:05:02.037Z,3.70
2018-03-06T02:10:03.245Z,3.80
2018-03-06T02:12:30.688Z,3.70
2018-03-06T02:14:58.122Z,3.70
2018-03-06T02:17:26.322Z,3.80
2018-03-06T02:19:53.804Z,3.70
2018-03-06T02:22:21.237Z,3.80
2018-03-06T02:24:48.670Z,3.70
2018-03-06T02:27:16.118Z,3.80
2018-03-06T02:29:43.552Z,3.70
2018-03-06T02:32:10.996Z,3.70
2018-03-06T02:34:38.538Z,3.70
2018-03-06T02:37:05.967Z,3.70
2018-03-06T02:39:33.397Z,3.60
2018-03-06T02:42:00.838Z,3.60
2018-03-06T02:44:28.279Z,3.50
2018-03-06T02:46:55.705Z,3.40
2018-03-06T02:49:23.166Z,3.40
2018-03-06T02:51:50.608Z,3.40
2018-03-06T02:54:18.050Z,3.30
2018-03-06T02:56:45.481Z,3.30
2018-03-06T02:59:13.691Z,3.30
2018-03-06T03:01:41.129Z,3.20
2018-03-06T03:04:08.579Z,3.10
2018-03-06T03:06:36.780Z,3.00
2018-03-06T03:09:04.219Z,3.00
2018-03-06T03:11:31.647Z,3.00
2018-03-06T03:13:59.170Z,3.00
2018-03-06T03:16:26.603Z,3.00
2018-03-06T03:18:54.039Z,2.90
2018-03-06T03:21:21.482Z,2.90
2018-03-06T03:23:49.686Z,2.90
2018-03-06T03:26:17.122Z,2.80
2018-03-06T03:28:44.578Z,2.90
2018-03-06T03:31:12.807Z,2.80
2018-03-06T03:33:40.246Z,2.70
2018-03-06T03:36:07.680Z,2.70
2018-03-06T03:38:35.171Z,2.70
2018-03-06T03:41:02.614Z,2.70
2018-03-06T03:43:30.059Z,2.60
2018-03-06T03:45:57.506Z,2.60
2018-03-06T03:48:24.959Z,2.60
2018-03-06T03:50:52.397Z,2.50
2018-03-06T03:53:20.614Z,2.40
2018-03-06T03:55:48.055Z,2.40
2018-03-06T03:58:15.514Z,2.40
2018-03-06T04:00:42.953Z,2.40
2018-03-06T04:03:10.407Z,2.40
2018-03-06T04:05:37.863Z,2.30
2018-03-06T04:08:05.294Z,2.30
2018-03-06T04:10:32.731Z,2.30
2018-03-06T04:13:00.172Z,2.20
2018-03-06T04:15:27.609Z,2.20
2018-03-06T04:17:55.082Z,2.20
2018-03-06T04:20:22.546Z,2.20
2018-03-06T04:22:49.999Z,2.10
2018-03-06T04:25:17.438Z,2.10
2018-03-06T04:27:44.879Z,2.10
2018-03-06T04:30:12.365Z,2.00
2018-03-06T04:32:39.825Z,2.00
2018-03-06T04:35:07.289Z,2.00
2018-03-06T04:37:34.730Z,2.00
2018-03-06T04:40:02.174Z,2.00
2018-03-06T04:42:29.609Z,2.00
2018-03-06T04:44:57.050Z,2.00
2018-03-06T04:47:25.261Z,2.00
2018-03-06T04:49:52.690Z,1.90
2018-03-06T04:52:20.133Z,2.00
2018-03-06T04:54:48.349Z,2.00
2018-03-06T04:57:15.806Z,1.90
2018-03-06T04:59:43.230Z,1.90
2018-03-06T05:02:10.673Z,1.90
2018-03-06T05:04:38.894Z,1.90
2018-03-06T05:07:06.349Z,1.80
2018-03-06T05:09:33.780Z,1.90
2018-03-06T05:12:01.223Z,1.80
2018-03-06T05:14:29.449Z,1.80
2018-03-06T05:16:56.900Z,1.80
2018-03-06T05:19:24.335Z,1.80
2018-03-06T05:21:51.778Z,1.90
2018-03-06T05:24:19.202Z,1.80
2018-03-06T05:26:47.423Z,1.80
2018-03-06T05:29:14.907Z,1.70
2018-03-06T05:31:42.362Z,1.80
2018-03-06T05:34:09.804Z,1.70
2018-03-06T05:36:37.238Z,1.70
2018-03-06T05:39:04.689Z,1.70
2018-03-06T05:41:32.124Z,1.70
2018-03-06T05:44:00.327Z,1.80
2018-03-06T05:46:27.767Z,1.70
2018-03-06T05:48:55.967Z,1.70
2018-03-06T05:51:23.405Z,1.70
2018-03-06T05:53:50.847Z,1.70
2018-03-06T05:56:19.046Z,1.70
2018-03-06T05:58:46.482Z,1.60
2018-03-06T06:01:14.673Z,1.60
2018-03-06T06:03:42.112Z,1.60
2018-03-06T06:06:09.567Z,1.60
2018-03-06T06:08:37.810Z,1.60
2018-03-06T06:11:05.243Z,1.60
2018-03-06T06:13:32.737Z,1.60
2018-03-06T06:16:00.146Z,1.60
2018-03-06T06:18:27.606Z,1.60
2018-03-06T06:20:55.037Z,1.60
2018-03-06T06:23:22.487Z,1.60
2018-03-06T06:25:49.935Z,1.70
2018-03-06T06:28:18.442Z,1.70
2018-03-06T06:30:45.897Z,1.60
2018-03-06T06:33:13.327Z,1.70
2018-03-06T06:35:40.788Z,1.60
2018-03-06T06:38:08.267Z,1.60
2018-03-06T06:40:35.682Z,1.60
2018-03-06T06:43:03.896Z,1.60
2018-03-06T06:45:31.389Z,1.60
2018-03-06T06:47:58.912Z,1.70
2018-03-06T06:50:26.333Z,1.70
2018-03-06T06:52:54.542Z,1.80
2018-03-06T06:55:21.982Z,1.70
2018-03-06T06:57:49.423Z,1.90
2018-03-06T07:00:17.687Z,1.90
2018-03-06T07:02:45.125Z,1.80
2018-03-06T07:05:12.571Z,1.90
2018-03-06T07:07:39.995Z,2.00
2018-03-06T07:10:07.452Z,2.00
2018-03-06T07:12:34.887Z,2.00
2018-03-06T07:15:02.350Z,2.00
2018-03-06T07:17:29.806Z,2.10
2018-03-06T07:19:57.260Z,2.20
2018-03-06T07:22:24.690Z,2.20
2018-03-06T07:24:52.121Z,2.20
2018-03-06T07:27:19.579Z,2.30
2018-03-06T07:29:47.018Z,2.40
2018-03-06T07:32:14.466Z,2.40
2018-03-06T07:34:41.906Z,2.50
2018-03-06T07:37:09.361Z,2.50
2018-03-06T07:39:36.816Z,2.60
2018-03-06T07:42:04.274Z,2.70
2018-03-06T07:44:31.732Z,2.70
2018-03-06T07:46:59.194Z,2.80
2018-03-06T07:49:26.650Z,2.90
2018-03-06T07:51:54.107Z,2.90
2018-03-06T07:54:21.538Z,3.00
2018-03-06T07:56:48.990Z,3.00
2018-03-06T07:59:16.455Z,3.10
2018-03-06T08:01:44.756Z,3.10
2018-03-06T08:04:12.188Z,3.10
2018-03-06T08:06:39.626Z,3.20
2018-03-06T08:09:07.850Z,3.30
2018-03-06T08:11:35.995Z,3.30
2018-03-06T08:14:03.465Z,3.40
2018-03-06T08:16:30.904Z,3.50
2018-03-06T08:18:58.326Z,3.60
2018-03-06T08:21:25.764Z,3.70
2018-03-06T08:23:53.238Z,3.70
2018-03-06T08:26:20.629Z,3.80
2018-03-06T08:28:48.067Z,3.70
2018-03-06T08:31:16.259Z,3.70
2018-03-06T08:33:43.839Z,3.70
2018-03-06T08:36:11.270Z,3.70
2018-03-06T08:38:38.729Z,3.70
2018-03-06T08:41:06.151Z,3.80
2018-03-06T08:43:33.590Z,3.90
2018-03-06T08:46:01.024Z,4.00
2018-03-06T08:48:28.459Z,4.00
2018-03-06T08:50:55.895Z,3.90
2018-03-06T08:53:23.330Z,3.90
2018-03-06T08:55:50.804Z,4.00
2018-03-06T08:58:18.258Z,4.10
2018-03-06T09:00:45.690Z,4.10
2018-03-06T09:03:13.145Z,4.20
2018-03-06T09:05:40.572Z,4.20
2018-03-06T09:08:08.001Z,4.30
2018-03-06T09:10:36.201Z,4.50
2018-03-06T09:13:03.650Z,4.40
2018-03-06T09:15:31.096Z,4.60
2018-03-06T09:17:58.538Z,4.60
2018-03-06T09:20:26.766Z,4.70
2018-03-06T09:22:54.186Z,4.70
2018-03-06T09:25:21.631Z,4.70
2018-03-06T09:27:49.821Z,4.80
2018-03-06T09:30:17.253Z,4.70
2018-03-06T09:32:44.682Z,4.80
2018-03-06T09:35:12.138Z,4.80
2018-03-06T09:37:39.600Z,4.90
2018-03-06T09:40:07.054Z,5.00
2018-03-06T09:42:34.621Z,5.10
2018-03-06T09:45:02.199Z,5.20
2018-03-06T09:47:30.435Z,5.40
2018-03-06T09:49:57.910Z,5.30
2018-03-06T09:52:26.133Z,5.30
2018-03-06T09:54:53.575Z,5.30
2018-03-06T09:57:21.778Z,5.40
2018-03-06T09:59:49.264Z,5.30
2018-03-06T10:02:16.692Z,5.40
2018-03-06T10:04:44.130Z,5.40
2018-03-06T10:07:11.632Z,5.50
2018-03-06T10:09:39.096Z,5.50
2018-03-06T10:12:06.636Z,5.50
2018-03-06T10:14:34.245Z,5.60
2018-03-06T10:17:01.744Z,5.60
2018-03-06T10:19:29.203Z,5.60
2018-03-06T10:21:56.674Z,5.70
2018-03-06T10:24:24.169Z,5.70
2018-03-06T10:26:51.635Z,5.70
2018-03-06T10:29:19.864Z,5.80
2018-03-06T10:31:47.324Z,5.70
2018-03-06T10:34:14.795Z,5.80
2018-03-06T10:36:42.272Z,5.70
2018-03-06T10:39:10.507Z,5.60
2018-03-06T10:41:38.080Z,5.60
2018-03-06T10:44:05.646Z,5.60
2018-03-06T10:46:33.156Z,5.70
2018-03-06T10:49:00.637Z,5.80
2018-03-06T10:51:28.184Z,5.90
2018-03-06T10:53:55.704Z,5.90
2018-03-06T10:56:23.979Z,6.00
2018-03-06T10:58:51.476Z,5.90
2018-03-06T11:01:24.791Z,6.00
2018-03-06T11:03:52.331Z,5.90
2018-03-06T11:06:19.920Z,6.00
2018-03-06T11:08:47.438Z,6.00
2018-03-06T11:11:14.882Z,6.10
2018-03-06T11:13:42.354Z,6.10
2018-03-06T11:16:09.849Z,6.10
2018-03-06T11:18:37.277Z,6.10
2018-03-06T11:21:04.739Z,6.10
2018-03-06T11:23:32.197Z,6.20
2018-03-06T11:25:59.656Z,6.20
2018-03-06T11:28:27.078Z,6.30
2018-03-06T11:30:54.527Z,6.40
2018-03-06T11:33:21.982Z,6.60
2018-03-06T11:35:49.441Z,6.60
2018-03-06T11:38:16.869Z,6.70
2018-03-06T11:40:44.313Z,6.60
2018-03-06T11:43:11.776Z,6.50
2018-03-06T11:45:39.222Z,6.50
2018-03-06T11:48:06.659Z,6.50
2018-03-06T11:50:34.106Z,6.60
2018-03-06T11:53:01.558Z,6.70
2018-03-06T11:55:28.999Z,6.80
2018-03-06T11:57:56.457Z,6.90
2018-03-06T12:00:23.886Z,7.00
2018-03-06T12:02:52.098Z,7.20
2018-03-06T12:05:19.547Z,7.20
2018-03-06T12:07:47.213Z,7.20
2018-03-06T12:10:14.667Z,7.30
2018-03-06T12:12:42.102Z,7.30
2018-03-06T12:15:09.555Z,7.30
2018-03-06T12:17:37.774Z,7.30
2018-03-06T12:20:05.213Z,7.20
2018-03-06T12:22:33.367Z,7.30
2018-03-06T12:25:01.562Z,7.50
2018-03-06T12:27:28.998Z,7.40
2018-03-06T12:29:56.439Z,7.50
2018-03-06T12:32:24.638Z,7.60
2018-03-06T12:34:52.100Z,7.60
2018-03-06T12:37:19.542Z,7.70
2018-03-06T12:39:47.028Z,7.70
2018-03-06T12:42:14.501Z,7.70
2018-03-06T12:44:41.950Z,7.60
2018-03-06T12:47:09.403Z,7.50
2018-03-06T12:49:36.831Z,7.60
2018-03-06T12:52:04.266Z,7.60
2018-03-06T12:54:32.472Z,7.80
2018-03-06T12:56:59.911Z,7.70
2018-03-06T12:59:27.391Z,7.80
2018-03-06T13:01:54.839Z,7.80
2018-03-06T13:04:22.282Z,7.80
2018-03-06T13:06:49.713Z,7.90
2018-03-06T13:09:17.151Z,8.00
2018-03-06T13:11:44.595Z,8.10
2018-03-06T13:14:12.094Z,8.20
2018-03-06T13:16:40.311Z,8.10
2018-03-06T13:19:07.755Z,8.10
2018-03-06T13:21:35.258Z,8.20
2018-03-06T13:24:02.806Z,8.20
2018-03-06T13:26:30.336Z,8.20
2018-03-06T13:28:57.780Z,8.20
2018-03-06T13:31:25.247Z,8.20
2018-03-06T13:33:52.706Z,8.10
2018-03-06T13:36:20.142Z,8.10
2018-03-06T13:38:47.765Z,8.20
2018-03-06T13:41:15.185Z,8.20
2018-03-06T13:43:42.622Z,8.20
2018-03-06T13:46:10.054Z,8.30
2018-03-06T13:48:38.274Z,8.50
2018-03-06T13:51:05.743Z,8.40
2018-03-06T13:53:33.279Z,8.50
2018-03-06T13:56:00.709Z,8.50
2018-03-06T13:58:28.146Z,8.50
2018-03-06T14:00:56.354Z,8.50
2018-03-06T14:03:23.794Z,8.40
2018-03-06T14:05:52.012Z,8.40
2018-03-06T14:08:19.438Z,8.40
2018-03-06T14:10:46.883Z,8.50
2018-03-06T14:13:14.314Z,8.60
2018-03-06T14:15:41.741Z,8.70
2018-03-06T14:18:09.190Z,8.70
2018-03-06T14:20:36.646Z,8.60
2018-03-06T14:23:04.094Z,8.70
2018-03-06T14:25:31.546Z,8.80
2018-03-06T14:27:58.994Z,8.90
2018-03-06T14:30:26.434Z,8.90
2018-03-06T14:32:54.630Z,9.00
2018-03-06T14:35:22.107Z,9.00
2018-03-06T14:37:49.756Z,9.10
2018-03-06T14:40:17.194Z,9.00
2018-03-06T14:42:44.655Z,9.00
2018-03-06T14:45:12.095Z,9.00
2018-03-06T14:47:39.562Z,9.00
2018-03-06T14:50:06.998Z,9.10
2018-03-06T14:52:35.211Z,9.30
2018-03-06T14:55:02.646Z,9.20
2018-03-06T14:57:30.115Z,9.50
2018-03-06T14:59:57.541Z,9.60
2018-03-06T15:02:25.757Z,9.90
2018-03-06T15:04:53.180Z,9.80
2018-03-06T15:07:21.395Z,10.10
2018-03-06T15:09:49.154Z,10.00
2018-03-06T15:12:16.588Z,10.10
2018-03-06T15:14:44.048Z,10.10
2018-03-06T15:17:11.489Z,10.20
2018-03-06T15:19:38.949Z,10.10
2018-03-06T15:22:06.437Z,10.10
2018-03-06T15:24:33.891Z,10.00
2018-03-06T15:27:01.360Z,9.80
2018-03-06T15:29:28.820Z,9.70
2018-03-06T15:31:56.361Z,9.70
2018-03-06T15:34:23.833Z,9.60
2018-03-06T15:36:52.033Z,9.30
2018-03-06T15:39:19.477Z,9.30
2018-03-06T15:41:46.943Z,9.20
2018-03-06T15:44:14.393Z,9.00
2018-03-06T15:46:41.842Z,8.80
2018-03-06T15:49:09.287Z,8.70
2018-03-06T15:51:36.738Z,8.60
2018-03-06T15:54:04.171Z,8.60
2018-03-06T15:56:31.644Z,8.50
2018-03-06T15:58:59.132Z,8.50
2018-03-06T16:01:26.558Z,8.50
2018-03-06T16:03:54.027Z,8.50
2018-03-06T16:06:21.474Z,8.50
2018-03-06T16:08:48.947Z,8.60
2018-03-06T16:11:16.413Z,8.50
2018-03-06T16:13:43.846Z,8.50
2018-03-06T16:16:11.296Z,8.50
2018-03-06T16:18:38.745Z,8.40
2018-03-06T16:21:06.189Z,8.40
2018-03-06T16:23:33.630Z,8.40
2018-03-06T16:26:01.077Z,8.40
2018-03-06T16:28:29.291Z,8.30
2018-03-06T16:30:56.725Z,8.30
2018-03-06T16:33:24.182Z,8.30
2018-03-06T16:35:52.403Z,8.40
2018-03-06T16:38:19.858Z,8.30
2018-03-06T16:40:48.101Z,8.30
2018-03-06T16:43:16.323Z,8.10
2018-03-06T16:45:43.873Z,8.10
2018-03-06T16:48:11.340Z,8.00
2018-03-06T16:50:38.785Z,8.00
2018-03-06T16:53:06.364Z,8.00
2018-03-06T16:55:33.903Z,8.00
2018-03-06T16:58:01.376Z,7.90
2018-03-06T17:00:28.839Z,7.90
2018-03-06T17:02:56.487Z,7.80
2018-03-06T17:05:23.938Z,7.80
2018-03-06T17:07:51.433Z,7.80
2018-03-06T17:10:19.695Z,7.80
2018-03-06T17:12:47.300Z,7.70
2018-03-06T17:15:14.960Z,7.70
2018-03-06T17:17:42.395Z,7.60
2018-03-06T17:20:09.839Z,7.60
2018-03-06T17:22:37.374Z,7.50
2018-03-06T17:25:04.811Z,7.40
2018-03-06T17:27:32.341Z,7.30
2018-03-06T17:29:59.955Z,7.30
2018-03-06T17:32:27.448Z,7.20
2018-03-06T17:34:54.962Z,7.20
2018-03-06T17:37:22.517Z,7.20
2018-03-06T17:39:49.966Z,7.10
2018-03-06T17:42:17.396Z,7.00
2018-03-06T17:44:44.997Z,6.90
2018-03-06T17:47:12.453Z,6.90
2018-03-06T17:49:39.927Z,6.90
2018-03-06T17:52:07.665Z,6.90
2018-03-06T17:54:35.094Z,6.80
2018-03-06T17:57:02.766Z,6.80
2018-03-06T17:59:30.195Z,6.80
2018-03-06T18:01:57.721Z,6.80
2018-03-06T18:04:25.203Z,6.80
2018-03-06T18:06:52.653Z,6.80
2018-03-06T18:09:20.100Z,6.70
2018-03-06T18:11:48.308Z,6.70
2018-03-06T18:14:15.734Z,6.70
2018-03-06T18:16:43.201Z,6.70
2018-03-06T18:19:11.403Z,6.60
2018-03-06T18:21:38.842Z,6.50
2018-03-06T18:24:06.290Z,6.50
2018-03-06T18:26:33.869Z,6.40
2018-03-06T18:29:01.303Z,6.50
2018-03-06T18:31:28.762Z,6.50
2018-03-06T18:33:56.213Z,6.50
2018-03-06T18:36:23.671Z,6.50
2018-03-06T18:38:51.122Z,6.40
2018-03-06T18:41:19.462Z,6.40
2018-03-06T18:43:46.916Z,6.40
2018-03-06T18:46:14.374Z,6.40
2018-03-06T18:48:41.834Z,6.40
2018-03-06T18:51:13.770Z,6.30
2018-03-06T18:53:41.227Z,6.30
2018-03-06T18:56:08.816Z,6.30
2018-03-06T18:58:36.262Z,6.30
2018-03-06T19:04:17.534Z,6.30
2018-03-06T19:06:47.770Z,6.20
2018-03-06T19:09:15.213Z,6.10
2018-03-06T19:11:42.638Z,6.10
2018-03-06T19:14:10.862Z,6.10
2018-03-06T19:16:38.296Z,6.00
2018-03-06T19:19:05.742Z,6.10
2018-03-06T19:21:33.175Z,6.00
2018-03-06T19:24:01.384Z,5.90
2018-03-06T19:26:28.954Z,5.90
2018-03-06T19:28:56.408Z,5.90
2018-03-06T19:31:24.060Z,5.90
2018-03-06T19:33:51.539Z,5.90
2018-03-06T19:36:19.001Z,5.90
2018-03-06T19:38:46.451Z,5.90
2018-03-06T19:41:13.901Z,5.90
2018-03-06T19:43:41.355Z,5.90
2018-03-06T19:46:08.819Z,5.80
2018-03-06T19:48:36.286Z,5.80
2018-03-06T19:51:03.726Z,5.80
2018-03-06T19:53:31.182Z,5.70
2018-03-06T19:55:58.641Z,5.70
2018-03-06T19:58:26.117Z,5.70
2018-03-06T20:00:53.574Z,5.60
2018-03-06T20:03:21.010Z,5.60
2018-03-06T20:05:48.471Z,8.00
2018-03-06T20:08:15.910Z,5.60
2018-03-06T20:10:43.359Z,4.10
2018-03-06T20:13:10.828Z,5.50
2018-03-06T20:15:38.264Z,5.50
2018-03-06T20:18:05.741Z,5.50
2018-03-06T20:20:33.183Z,5.40
2018-03-06T20:23:00.642Z,5.40
2018-03-06T20:25:33.794Z,5.40
2018-03-06T20:28:01.994Z,5.30
2018-03-06T20:30:35.239Z,5.30
2018-03-06T20:33:08.419Z,5.30
2018-03-06T20:35:35.867Z,5.30
2018-03-06T20:38:03.309Z,5.30
2018-03-06T20:40:32.129Z,5.30
2018-03-06T20:42:59.569Z,5.20
2018-03-06T20:45:27.034Z,5.10
2018-03-06T20:47:54.518Z,5.10
2018-03-06T20:50:21.897Z,5.00
2018-03-06T20:52:55.815Z,5.00
2018-03-06T20:55:23.397Z,4.90
2018-03-06T20:57:50.835Z,5.00
2018-03-06T21:00:18.316Z,5.00
2018-03-06T21:02:45.698Z,5.00
2018-03-06T21:05:13.147Z,5.00
2018-03-06T21:07:40.606Z,4.90
2018-03-06T21:10:08.123Z,4.90
2018-03-06T21:12:35.551Z,4.80
2018-03-06T21:15:03.740Z,4.70
2018-03-06T21:17:31.171Z,4.70
2018-03-06T21:19:58.622Z,4.70
2018-03-06T21:22:26.168Z,4.70
2018-03-06T21:24:53.781Z,4.70
2018-03-06T21:27:21.171Z,4.70
2018-03-06T21:29:48.630Z,4.70
2018-03-06T21:32:16.082Z,4.60
2018-03-06T21:34:43.559Z,4.60
2018-03-06T21:37:11.105Z,4.60
2018-03-06T21:39:38.559Z,4.50
2018-03-06T21:42:06.019Z,4.60
2018-03-06T21:44:33.474Z,4.50
2018-03-06T21:47:00.939Z,4.50
2018-03-06T21:49:28.388Z,4.50
2018-03-06T21:51:55.851Z,4.50
2018-03-06T21:54:23.372Z,4.50
2018-03-06T21:56:50.896Z,4.50
2018-03-06T21:59:18.391Z,4.50
2018-03-06T22:01:45.882Z,4.50
2018-03-06T22:04:13.346Z,4.50
2018-03-06T22:06:40.794Z,4.50
2018-03-06T22:09:08.234Z,4.50
2018-03-06T22:11:35.688Z,4.50
2018-03-06T22:14:03.143Z,4.50
2018-03-06T22:16:30.600Z,4.40
2018-03-06T22:18:58.034Z,4.40
2018-03-06T22:21:25.478Z,4.40
2018-03-06T22:23:53.834Z,4.40
2018-03-06T22:26:22.040Z,4.50
2018-03-06T22:28:49.474Z,4.40
2018-03-06T22:31:17.671Z,4.50
2018-03-06T22:33:45.106Z,4.40
2018-03-06T22:36:13.299Z,4.40
2018-03-06T22:38:40.733Z,4.40
2018-03-06T22:41:08.942Z,4.30
2018-03-06T22:43:36.391Z,4.30
2018-03-06T22:46:03.891Z,4.30
2018-03-06T22:48:31.277Z,4.30
2018-03-06T22:50:58.724Z,4.30
2018-03-06T22:53:26.940Z,4.30
2018-03-06T22:55:54.383Z,4.20
2018-03-06T22:58:21.822Z,4.30
2018-03-06T23:00:49.296Z,4.40
2018-03-06T23:03:16.730Z,4.40
2018-03-06T23:05:44.926Z,4.40
2018-03-06T23:08:12.374Z,4.30
2018-03-06T23:10:39.813Z,4.40
2018-03-06T23:13:08.019Z,4.30
2018-03-06T23:15:35.445Z,4.20
2018-03-06T23:18:03.650Z,4.30
2018-03-06T23:20:31.086Z,4.20
2018-03-06T23:22:58.517Z,4.30
2018-03-06T23:25:26.725Z,4.30
2018-03-06T23:27:54.186Z,4.30
2018-03-06T23:30:21.624Z,4.30
2018-03-06T23:32:49.826Z,4.30
2018-03-06T23:35:17.274Z,4.20
2018-03-06T23:37:44.729Z,4.30
2018-03-06T23:40:12.170Z,4.20
2018-03-06T23:42:40.390Z,4.20
2018-03-06T23:45:07.958Z,5.80
2018-03-06T23:47:35.397Z,4.20
2018-03-06T23:50:02.869Z,4.10
2018-03-06T23:52:30.326Z,4.00
2018-03-06T23:54:57.772Z,4.00
2018-03-06T23:57:25.197Z,4.10
2018-03-06T23:59:52.652Z,4.00
